ADDS METAR Data INFO
IDs: Format: Raw Decoded Include TAF

Data at: 2342 UTC 15 Dec 2017

KGTR 152256Z 00000KT 10SM CLR 04/M04 A3022 RMK AO2 SLP237 T00391039
KGTR 152156Z 30003KT 10SM CLR 05/M04 A3022 RMK AO2 SLP239 T00501039
KGTR 152056Z 32003KT 10SM CLR 06/M04 A3022 RMK AO2 SLP239 T00561039 55008
KGTR 151956Z 01005KT 10SM CLR 06/M03 A3021 RMK AO2 SLP233 T00561033
KGTR 151856Z VRB04KT 10SM CLR 04/M03 A3024 RMK AO2 SLP242 T00441033
KGTR 151756Z 35007KT 10SM CLR 04/M03 A3025 RMK AO2 SLP247 T00441033 10050 20000 50006
KGTR 151656Z 36008KT 10SM CLR 04/M03 A3027 RMK AO2 SLP254 T00441033
KGTR 151456Z 32005KT 10SM CLR 02/M02 A3023 RMK AO2 SLP240 T00221022 51026 FZRANO
KGTR 151356Z 32007KT 10SM CLR 01/M02 A3021 RMK AO2 SLP232 T00061022 FZRANO
KGTR 151256Z 32004KT 10SM CLR 00/M02 A3019 RMK AO2 SLP226 T00001022 FZRANO
KGTR 151156Z 29003KT 10SM CLR 00/M03 A3015 RMK AO2 SLP214 7//// T00001028 10044 21011 53008 FZRANO
KGTR 151056Z AUTO 32003KT 10SM CLR M01/M03 A3014 RMK AO2 SLPNO T10061028 FZRANO
KGTR 150956Z AUTO 28004KT 10SM CLR 01/M03 A3014 RMK AO2 SLP209 T00061028 FZRANO
KGTR 150856Z AUTO 32004KT 10SM CLR 00/M03 A3013 RMK AO2 SLP205 T00001028 53011 FZRANO
KGTR 150756Z AUTO 33005KT 10SM CLR 01/M03 A3011 RMK AO2 SLP200 T00111028 FZRANO
KGTR 150656Z AUTO 35005KT 10SM CLR 02/M02 A3010 RMK AO2 SLP196 T00221022 FZRANO
KGTR 150556Z AUTO 34007KT 10SM CLR 04/M02 A3010 RMK AO2 SLP194 T00441017 10111 20039 401610006 51013
KGTR 150456Z AUTO 34008KT 10SM CLR 06/M01 A3009 RMK AO2 SLP192 T00561011
KGTR 150356Z AUTO 34011KT 10SM CLR 07/00 A3008 RMK AO2 SLP188 T00720000
KGTR 150256Z AUTO 34007KT 10SM CLR 08/01 A3006 RMK AO2 SLP182 T00830006 51019
KGTR 150156Z AUTO 35005KT 10SM CLR 08/01 A3005 RMK AO2 SLP177 T00830011
KGTR 150056Z 35004KT 10SM CLR 10/01 A3003 RMK AO2 SLP172 T01000011
KGTR 142356Z 34007KT 10SM CLR 11/01 A3001 RMK AO2 SLP164 6//// T01110011 10161 20111
KGTR 142156Z AUTO 36005KT 10SM CLR 14/02 A2996 RMK AO2 SLP146 T01390022
KGTR 142056Z 02006KT 10SM CLR 16/01 A2995 RMK AO2 SLP142 6//// T01610011 $
KGTR 141956Z 30004KT CLR 16/01 A2996 RMK AO2 SLP146 T01560006 PWINO RVRNO $
KGTR 141856Z VRB03KT 10SM CLR 15/01 RMK AO2 SLPNO T01500006 $
KGTR 141756Z 35004KT 10SM CLR 13/01 A2999 RMK AO2 SLP156 60002 T01330006 10133 20006 50003 $
KGTR 141656Z 31004KT 10SM CLR 12/01 A3000 RMK AO2 SLP160 T01170011 $
KGTR 141556Z 33006KT 10SM CLR 09/01 A3000 RMK AO2 SLP159 P0002 T00940006 $
KGTR 141456Z 28003KT 10SM CLR 07/01 A2998 RMK AO2 SLP153 T00670006 52017 $
KGTR 141356Z 21003KT 10SM CLR 02/M01 A2997 RMK AO2 SLP151 T00221006 FZRANO $
KGTR 141256Z 00000KT 10SM CLR 03/M01 A2994 RMK AO2 SLP140 T00331011 $
KGTR 141156Z 00000KT 10SM CLR 04/M02 A2993 RMK AO2 SLP137 7//// T00391017 10083 20039 $